Time;durP1;ratioP1;P1;durP2;ratioP2;P2;SDS_P1;SDS_P2;PMS_P1;PMS_P2;Temp;Humidity;BMP_temperature;BMP_pressure;BME280_temperature;BME280_humidity;BME280_pressure;Samples;Min_cycle;Max_cycle;Signal;HPM_P1;HPM_P2
2024/02/12 00:02:44;;;;;;;3.85;2.70;;;;;;;;;;13100819;22;20389;-83
2024/02/12 00:07:47;;;;;;;2.97;2.67;;;;;;;;;;13100563;22;20364;-83
2024/02/12 00:12:52;;;;;;;4.50;2.80;;;;;;;;;;13104616;22;20436;-83
2024/02/12 00:17:59;;;;;;;2.90;2.20;;;;;;;;;;13105992;22;20363;-82
2024/02/12 00:23:01;;;;;;;3.50;2.10;;;;;;;;;;13106833;22;20409;-82
2024/02/12 00:28:07;;;;;;;2.58;1.80;;;;;;;;;;13105015;22;20383;-82
2024/02/12 00:33:09;;;;;;;2.65;1.58;;;;;;;;;;13105750;22;20355;-83
2024/02/12 00:38:12;;;;;;;1.48;1.38;;;;;;;;;;13105136;22;20359;-83
2024/02/12 00:43:16;;;;;;;2.10;1.10;;;;;;;;;;13107060;22;20367;-83
2024/02/12 00:48:18;;;;;;;1.23;1.10;;;;;;;;;;13110477;22;20403;-82
2024/02/12 00:53:22;;;;;;;2.30;1.42;;;;;;;;;;13109496;22;20420;-83
2024/02/12 00:58:26;;;;;;;2.15;1.30;;;;;;;;;;13109979;22;20863;-83
2024/02/12 01:03:28;;;;;;;2.53;2.00;;;;;;;;;;13108268;22;20355;-83
2024/02/12 01:08:31;;;;;;;2.20;1.90;;;;;;;;;;13109537;22;20405;-83
2024/02/12 01:13:35;;;;;;;3.17;2.20;;;;;;;;;;13108716;22;20906;-84
2024/02/12 01:18:39;;;;;;;3.42;2.35;;;;;;;;;;13108823;22;20826;-83
2024/02/12 01:23:43;;;;;;;3.47;2.80;;;;;;;;;;13109343;22;20355;-83
2024/02/12 01:28:47;;;;;;;4.63;2.58;;;;;;;;;;13108629;22;20375;-83
2024/02/12 01:33:49;;;;;;;3.57;2.37;;;;;;;;;;13109445;22;20424;-83
2024/02/12 01:38:52;;;;;;;3.63;2.30;;;;;;;;;;13108055;22;20359;-83
2024/02/12 01:43:56;;;;;;;2.13;1.90;;;;;;;;;;13107099;22;20356;-83
2024/02/12 01:48:59;;;;;;;2.15;1.60;;;;;;;;;;13107737;22;20916;-82
2024/02/12 01:54:01;;;;;;;2.10;1.55;;;;;;;;;;13107617;22;20367;-83
2024/02/12 01:59:07;;;;;;;2.17;1.70;;;;;;;;;;13108801;22;20417;-83
2024/02/12 02:04:09;;;;;;;2.20;1.70;;;;;;;;;;13103899;22;20433;-83
2024/02/12 02:09:12;;;;;;;1.80;1.53;;;;;;;;;;13103201;22;20379;-82
2024/02/12 02:14:15;;;;;;;2.50;1.23;;;;;;;;;;13108343;22;20367;-81
2024/02/12 02:19:18;;;;;;;1.40;1.10;;;;;;;;;;13107495;22;20359;-83
2024/02/12 02:24:22;;;;;;;1.75;1.02;;;;;;;;;;13106554;22;20421;-82
2024/02/12 02:29:25;;;;;;;0.70;0.70;;;;;;;;;;13106442;22;20379;-83
2024/02/12 02:34:27;;;;;;;0.60;0.60;;;;;;;;;;13107302;22;20738;-83
2024/02/12 02:39:31;;;;;;;0.60;0.60;;;;;;;;;;13107296;22;21078;-83
2024/02/12 02:44:34;;;;;;;0.55;0.55;;;;;;;;;;13107684;22;20831;-83
2024/02/12 02:49:36;;;;;;;0.60;0.60;;;;;;;;;;13107715;22;20760;-83
2024/02/12 02:54:40;;;;;;;0.60;0.60;;;;;;;;;;13105534;22;20363;-83
2024/02/12 02:59:43;;;;;;;0.60;0.50;;;;;;;;;;13106857;22;20363;-83
2024/02/12 03:04:45;;;;;;;0.45;0.45;;;;;;;;;;13107774;22;20366;-83
2024/02/12 03:09:49;;;;;;;0.57;0.55;;;;;;;;;;13105010;22;20437;-83
2024/02/12 03:14:51;;;;;;;0.60;0.50;;;;;;;;;;13103838;22;21148;-82
2024/02/12 03:19:54;;;;;;;0.50;0.50;;;;;;;;;;13106573;22;20424;-84
2024/02/12 03:25:00;;;;;;;0.50;0.50;;;;;;;;;;13105323;22;20363;-81
2024/02/12 03:30:05;;;;;;;0.50;0.50;;;;;;;;;;13106232;22;20409;-83
2024/02/12 03:35:07;;;;;;;0.70;0.50;;;;;;;;;;13106849;22;20355;-83
2024/02/12 03:40:13;;;;;;;0.40;0.40;;;;;;;;;;13106731;22;20375;-83
2024/02/12 03:45:16;;;;;;;0.53;0.50;;;;;;;;;;13106436;22;20364;-82
2024/02/12 04:01:00;;;;;;;0.35;0.35;;;;;;;;;;13127881;22;20378;-83
2024/02/12 04:06:06;;;;;;;0.30;0.30;;;;;;;;;;13107395;22;20385;-83
2024/02/12 04:11:10;;;;;;;1.25;0.40;;;;;;;;;;13105723;22;20383;-83
2024/02/12 04:16:14;;;;;;;0.35;0.35;;;;;;;;;;13106216;22;20355;-83
2024/02/12 04:21:20;;;;;;;0.30;0.30;;;;;;;;;;13106911;22;20393;-82
2024/02/12 04:26:24;;;;;;;0.30;0.30;;;;;;;;;;13106469;22;20355;-83
2024/02/12 04:31:27;;;;;;;0.38;0.38;;;;;;;;;;13104821;22;20378;-82
2024/02/12 04:36:31;;;;;;;0.20;0.20;;;;;;;;;;13107086;22;20394;-83
2024/02/12 04:41:40;;;;;;;0.30;0.30;;;;;;;;;;13107063;22;20363;-83
2024/02/12 04:46:42;;;;;;;0.30;0.30;;;;;;;;;;13107254;22;20375;-82
2024/02/12 04:51:45;;;;;;;0.30;0.30;;;;;;;;;;13107061;22;20443;-82
2024/02/12 04:56:49;;;;;;;0.47;0.47;;;;;;;;;;13104851;22;20367;-83
2024/02/12 05:01:52;;;;;;;0.45;0.45;;;;;;;;;;13105651;22;20359;-83
2024/02/12 05:06:54;;;;;;;0.38;0.38;;;;;;;;;;13105727;22;20360;-83
2024/02/12 05:11:58;;;;;;;0.70;0.40;;;;;;;;;;13104555;22;20854;-83
2024/02/12 05:17:03;;;;;;;1.52;1.05;;;;;;;;;;13105251;22;20432;-83
2024/02/12 05:27:26;;;;;;;2.60;1.10;;;;;;;;;;13127126;22;20413;-83
2024/02/12 05:32:29;;;;;;;1.87;0.70;;;;;;;;;;13108820;22;20441;-82
2024/02/12 05:37:33;;;;;;;0.45;0.40;;;;;;;;;;13108328;22;20390;-83
2024/02/12 05:42:37;;;;;;;0.73;0.50;;;;;;;;;;13107844;22;20843;-82
2024/02/12 05:47:40;;;;;;;0.77;0.50;;;;;;;;;;13108024;22;20367;-83
2024/02/12 05:52:42;;;;;;;0.70;0.60;;;;;;;;;;13105644;22;20383;-84
2024/02/12 05:57:46;;;;;;;0.70;0.50;;;;;;;;;;13105208;22;20363;-83
2024/02/12 06:02:48;;;;;;;1.27;0.47;;;;;;;;;;13103082;22;20363;-82
2024/02/12 06:07:52;;;;;;;0.50;0.40;;;;;;;;;;13103870;22;21064;-82
2024/02/12 06:12:57;;;;;;;1.10;0.60;;;;;;;;;;13103717;22;21197;-82
2024/02/12 06:18:00;;;;;;;0.40;0.38;;;;;;;;;;13108051;22;20367;-83
2024/02/12 06:23:03;;;;;;;0.60;0.50;;;;;;;;;;13107738;22;20884;-83
2024/02/12 06:28:09;;;;;;;0.90;0.50;;;;;;;;;;13106922;22;20527;-82
2024/02/12 06:33:11;;;;;;;0.60;0.52;;;;;;;;;;13079632;22;20711;-84
2024/02/12 06:38:14;;;;;;;0.60;0.60;;;;;;;;;;13128276;22;20367;-84
2024/02/12 06:43:18;;;;;;;0.52;0.52;;;;;;;;;;13105856;22;20839;-84
2024/02/12 06:48:21;;;;;;;0.70;0.57;;;;;;;;;;13079646;22;20371;-84
2024/02/12 06:53:23;;;;;;;0.60;0.60;;;;;;;;;;13103089;22;20923;-85
2024/02/12 06:58:27;;;;;;;1.02;0.80;;;;;;;;;;13104049;22;20360;-84
2024/02/12 07:03:32;;;;;;;1.20;1.00;;;;;;;;;;13105546;22;20393;-83
2024/02/12 07:08:35;;;;;;;2.10;1.13;;;;;;;;;;13099530;22;20425;-83
2024/02/12 07:13:39;;;;;;;1.88;1.48;;;;;;;;;;13127784;22;20719;-83
2024/02/12 07:18:41;;;;;;;1.47;1.37;;;;;;;;;;13107380;22;20351;-83
2024/02/12 07:23:44;;;;;;;2.22;1.52;;;;;;;;;;13105630;22;20359;-82
2024/02/12 07:28:49;;;;;;;1.80;1.50;;;;;;;;;;13105721;22;20367;-83
2024/02/12 07:33:52;;;;;;;2.60;1.67;;;;;;;;;;13104689;22;20375;-82
2024/02/12 07:38:55;;;;;;;2.15;1.63;;;;;;;;;;13101251;22;20684;-80
2024/02/12 07:43:59;;;;;;;2.92;1.80;;;;;;;;;;13104194;22;20355;-84
2024/02/12 07:49:03;;;;;;;2.08;1.67;;;;;;;;;;13105150;22;20436;-82
2024/02/12 07:54:06;;;;;;;1.65;1.50;;;;;;;;;;13104545;22;20433;-81
2024/02/12 07:59:10;;;;;;;2.53;1.83;;;;;;;;;;13102857;22;20661;-82
2024/02/12 08:04:13;;;;;;;2.20;1.52;;;;;;;;;;13104179;22;20393;-81
2024/02/12 08:09:17;;;;;;;1.95;1.70;;;;;;;;;;13102815;22;20923;-86
2024/02/12 08:14:20;;;;;;;3.17;1.73;;;;;;;;;;13104342;22;20452;-85
2024/02/12 08:19:23;;;;;;;2.90;1.83;;;;;;;;;;13103263;22;20359;-85
2024/02/12 08:24:25;;;;;;;2.65;1.77;;;;;;;;;;13103909;22;20363;-84
2024/02/12 08:29:29;;;;;;;1.83;1.58;;;;;;;;;;13104245;22;20363;-85
2024/02/12 08:34:32;;;;;;;2.47;1.80;;;;;;;;;;13104115;22;20687;-84
2024/02/12 08:39:34;;;;;;;2.40;1.67;;;;;;;;;;13103932;22;20754;-85
2024/02/12 08:44:38;;;;;;;3.90;2.63;;;;;;;;;;13102541;22;20359;-85
2024/02/12 08:49:41;;;;;;;3.87;2.70;;;;;;;;;;13104117;22;20442;-84
2024/02/12 08:54:44;;;;;;;3.03;2.38;;;;;;;;;;13104223;22;20440;-85
2024/02/12 08:59:49;;;;;;;3.97;2.28;;;;;;;;;;13103916;22;20363;-84
2024/02/12 09:04:52;;;;;;;2.08;1.40;;;;;;;;;;13104932;22;20416;-87
2024/02/12 09:09:54;;;;;;;1.30;1.10;;;;;;;;;;13104581;22;20935;-87
2024/02/12 09:14:58;;;;;;;1.30;0.88;;;;;;;;;;13105213;22;20444;-86
2024/02/12 09:20:01;;;;;;;0.88;0.65;;;;;;;;;;13107432;22;20393;-87
2024/02/12 09:25:04;;;;;;;0.50;0.50;;;;;;;;;;13105203;22;20371;-85
2024/02/12 09:30:11;;;;;;;1.08;0.70;;;;;;;;;;13104993;22;20412;-85
2024/02/12 09:35:15;;;;;;;1.00;0.70;;;;;;;;;;13103497;22;20379;-86
2024/02/12 09:40:21;;;;;;;0.55;0.55;;;;;;;;;;13104468;22;20675;-87
2024/02/12 09:45:26;;;;;;;0.60;0.60;;;;;;;;;;13104945;22;20359;-87
2024/02/12 09:50:29;;;;;;;1.70;0.77;;;;;;;;;;13103649;22;20363;-86
2024/02/12 09:55:32;;;;;;;0.93;0.80;;;;;;;;;;13103307;22;21061;-87
2024/02/12 10:00:36;;;;;;;1.00;0.90;;;;;;;;;;13103797;22;20667;-85
2024/02/12 10:05:41;;;;;;;1.25;0.80;;;;;;;;;;13102128;22;20429;-85
2024/02/12 10:10:44;;;;;;;1.40;1.00;;;;;;;;;;13101740;22;20402;-86
2024/02/12 10:15:51;;;;;;;1.83;0.93;;;;;;;;;;13075264;22;21514;-83
2024/02/12 10:20:54;;;;;;;0.60;0.60;;;;;;;;;;13104570;22;20679;-85
2024/02/12 10:25:57;;;;;;;0.50;0.50;;;;;;;;;;13103324;22;20359;-85
2024/02/12 10:31:01;;;;;;;0.80;0.80;;;;;;;;;;13105349;22;20695;-84
2024/02/12 10:36:06;;;;;;;1.88;0.80;;;;;;;;;;13113969;22;20347;-83
2024/02/12 10:41:16;;;;;;;1.45;0.82;;;;;;;;;;13106045;22;20432;-84
2024/02/12 10:46:20;;;;;;;1.20;0.80;;;;;;;;;;13101030;22;20367;-84
2024/02/12 10:51:25;;;;;;;1.33;1.23;;;;;;;;;;13103419;22;20415;-85
2024/02/12 10:56:29;;;;;;;1.70;1.00;;;;;;;;;;13101160;22;20825;-85
2024/02/12 11:01:33;;;;;;;1.90;0.93;;;;;;;;;;13102703;22;20360;-84
2024/02/12 11:06:40;;;;;;;1.25;1.02;;;;;;;;;;13098639;22;20363;-83
2024/02/12 11:11:47;;;;;;;0.90;0.80;;;;;;;;;;13099330;22;20416;-84
2024/02/12 11:16:52;;;;;;;0.85;0.60;;;;;;;;;;13103754;22;20448;-84
2024/02/12 11:21:57;;;;;;;1.55;0.70;;;;;;;;;;13098931;22;20363;-84
2024/02/12 11:27:00;;;;;;;1.08;0.70;;;;;;;;;;13097736;22;20389;-85
2024/02/12 11:32:05;;;;;;;1.10;0.75;;;;;;;;;;13100718;22;20383;-86
2024/02/12 11:37:08;;;;;;;0.90;0.80;;;;;;;;;;13106110;22;20359;-85
2024/02/12 11:42:10;;;;;;;1.00;0.75;;;;;;;;;;13101645;22;20425;-85
2024/02/12 11:47:24;;;;;;;2.17;0.90;;;;;;;;;;13103790;22;20676;-86
2024/02/12 11:52:27;;;;;;;1.07;0.80;;;;;;;;;;13101718;22;20899;-85
2024/02/12 11:57:29;;;;;;;0.80;0.68;;;;;;;;;;13112930;22;20363;-84
2024/02/12 12:02:33;;;;;;;0.60;0.60;;;;;;;;;;13101248;22;20830;-86
2024/02/12 12:07:38;;;;;;;0.55;0.50;;;;;;;;;;13102667;22;20734;-86
2024/02/12 12:12:42;;;;;;;0.80;0.63;;;;;;;;;;13102947;22;20379;-85
2024/02/12 12:17:47;;;;;;;1.00;0.68;;;;;;;;;;13105242;22;20379;-86
2024/02/12 12:22:49;;;;;;;0.70;0.47;;;;;;;;;;13096734;22;20405;-86
2024/02/12 12:27:52;;;;;;;26.33;10.45;;;;;;;;;;13096711;22;20351;-86
2024/02/12 12:32:56;;;;;;;7.63;3.10;;;;;;;;;;13089626;22;20719;-86
2024/02/12 12:38:00;;;;;;;1.15;0.60;;;;;;;;;;13099941;22;20402;-87
2024/02/12 12:43:04;;;;;;;1.25;0.40;;;;;;;;;;13101647;22;20371;-88
2024/02/12 12:48:12;;;;;;;2.13;0.90;;;;;;;;;;13098299;22;20436;-85
2024/02/12 12:53:14;;;;;;;1.15;0.80;;;;;;;;;;13095607;22;20379;-71
2024/02/12 12:58:18;;;;;;;3.15;1.15;;;;;;;;;;13095171;22;20843;-84
2024/02/12 13:03:22;;;;;;;0.40;0.40;;;;;;;;;;13092615;22;20375;-84
2024/02/12 13:08:25;;;;;;;0.43;0.43;;;;;;;;;;13106469;22;20408;-84
2024/02/12 13:13:27;;;;;;;1.33;0.80;;;;;;;;;;13112579;22;20957;-82
2024/02/12 13:18:31;;;;;;;1.80;0.40;;;;;;;;;;13106811;22;20436;-82
2024/02/12 13:23:34;;;;;;;0.55;0.43;;;;;;;;;;13104217;22;20428;-83
2024/02/12 13:28:38;;;;;;;0.93;0.70;;;;;;;;;;13106046;22;20935;-83
2024/02/12 13:33:42;;;;;;;4.00;1.67;;;;;;;;;;13103812;22;20475;-82
2024/02/12 13:38:45;;;;;;;4.53;2.00;;;;;;;;;;13104706;22;20363;-84
2024/02/12 13:43:48;;;;;;;6.10;2.33;;;;;;;;;;13104761;22;20421;-84
2024/02/12 13:48:53;;;;;;;2.97;1.60;;;;;;;;;;13105115;22;20690;-85
2024/02/12 13:53:55;;;;;;;23.52;7.75;;;;;;;;;;13103647;22;20882;-84
2024/02/12 13:58:58;;;;;;;2.72;1.67;;;;;;;;;;13104161;22;20363;-84
2024/02/12 14:04:06;;;;;;;44.28;15.68;;;;;;;;;;13105570;22;20359;-85
2024/02/12 14:09:08;;;;;;;1.48;0.90;;;;;;;;;;13105039;22;20683;-84
2024/02/12 14:14:13;;;;;;;1.00;0.80;;;;;;;;;;13101001;22;20379;-84
2024/02/12 14:19:17;;;;;;;0.65;0.60;;;;;;;;;;13104910;22;20364;-84
2024/02/12 14:24:21;;;;;;;0.70;0.70;;;;;;;;;;13103939;22;20386;-84
2024/02/12 14:29:24;;;;;;;1.15;0.68;;;;;;;;;;13099345;22;20412;-84
2024/02/12 14:34:28;;;;;;;0.60;0.60;;;;;;;;;;13103363;22;21200;-84
2024/02/12 14:39:30;;;;;;;2.43;0.53;;;;;;;;;;13098773;22;20445;-84
2024/02/12 14:44:32;;;;;;;1.40;0.60;;;;;;;;;;13098072;22;20367;-84
2024/02/12 14:49:36;;;;;;;0.83;0.70;;;;;;;;;;13099315;22;20420;-84
2024/02/12 14:54:39;;;;;;;1.77;0.45;;;;;;;;;;13098125;22;20379;-84
2024/02/12 14:59:41;;;;;;;0.90;0.68;;;;;;;;;;13097362;22;20364;-84
2024/02/12 15:04:45;;;;;;;0.52;0.52;;;;;;;;;;13097496;22;20420;-84
2024/02/12 15:09:48;;;;;;;0.82;0.63;;;;;;;;;;13097835;22;20429;-84
2024/02/12 15:14:51;;;;;;;0.70;0.60;;;;;;;;;;13097182;22;20467;-85
2024/02/12 15:19:55;;;;;;;0.60;0.60;;;;;;;;;;13099459;22;20371;-83
2024/02/12 15:24:58;;;;;;;1.80;0.75;;;;;;;;;;13100002;22;20364;-84
2024/02/12 15:30:01;;;;;;;1.10;0.50;;;;;;;;;;13089780;22;20359;-85
2024/02/12 15:35:06;;;;;;;0.90;0.63;;;;;;;;;;13089194;22;20383;-86
2024/02/12 15:40:11;;;;;;;0.90;0.75;;;;;;;;;;13090691;22;20484;-86
2024/02/12 15:45:14;;;;;;;1.13;0.80;;;;;;;;;;13087399;22;20405;-86
2024/02/12 15:50:19;;;;;;;1.30;0.90;;;;;;;;;;13099002;22;20374;-85
2024/02/12 15:55:23;;;;;;;0.95;0.60;;;;;;;;;;13088687;22;20391;-83
2024/02/12 16:00:29;;;;;;;1.20;0.60;;;;;;;;;;13086555;22;20471;-83
2024/02/12 16:06:08;;;;;;;1.67;1.00;;;;;;;;;;13087564;22;20436;-85
2024/02/12 16:11:12;;;;;;;1.20;1.10;;;;;;;;;;13086275;22;20444;-83
2024/02/12 16:16:17;;;;;;;1.80;1.00;;;;;;;;;;13084983;22;20902;-84
2024/02/12 16:21:21;;;;;;;3.00;1.60;;;;;;;;;;13089051;22;20424;-85
2024/02/12 16:26:24;;;;;;;5.80;2.90;;;;;;;;;;13085819;22;20363;-84
2024/02/12 16:31:27;;;;;;;5.78;2.50;;;;;;;;;;13087316;22;20405;-85
2024/02/12 16:36:32;;;;;;;5.25;2.03;;;;;;;;;;13087204;22;20383;-85
2024/02/12 16:41:35;;;;;;;1.77;1.40;;;;;;;;;;13087001;22;20440;-84
2024/02/12 16:46:42;;;;;;;3.75;1.60;;;;;;;;;;13086187;22;20448;-84
2024/02/12 16:51:49;;;;;;;2.40;1.65;;;;;;;;;;13087655;22;20741;-84
2024/02/12 16:56:52;;;;;;;4.13;1.80;;;;;;;;;;13088100;22;20444;-85
2024/02/12 17:01:54;;;;;;;5.05;1.95;;;;;;;;;;13090227;22;20379;-85
2024/02/12 17:06:59;;;;;;;8.07;3.93;;;;;;;;;;13090936;22;20863;-84
2024/02/12 17:12:04;;;;;;;12.23;5.30;;;;;;;;;;13087270;22;20367;-85
2024/02/12 17:17:07;;;;;;;10.20;6.13;;;;;;;;;;13094199;22;21178;-84
2024/02/12 17:22:11;;;;;;;12.07;5.40;;;;;;;;;;13090008;22;20371;-84
2024/02/12 17:27:14;;;;;;;8.95;3.95;;;;;;;;;;13092757;22;20817;-84
2024/02/12 17:32:16;;;;;;;9.60;3.75;;;;;;;;;;13096260;22;20363;-85
2024/02/12 17:37:23;;;;;;;7.78;3.95;;;;;;;;;;13097912;22;20371;-82
2024/02/12 17:42:26;;;;;;;6.90;4.10;;;;;;;;;;13098442;22;20443;-86
2024/02/12 17:47:28;;;;;;;7.30;3.78;;;;;;;;;;13097730;22;20379;-84
2024/02/12 17:52:32;;;;;;;13.27;7.40;;;;;;;;;;13097300;22;20401;-85
2024/02/12 17:57:34;;;;;;;11.77;8.15;;;;;;;;;;13097618;22;20387;-88
2024/02/12 18:02:37;;;;;;;14.60;8.77;;;;;;;;;;13098062;22;20375;-85
2024/02/12 18:07:41;;;;;;;12.87;7.33;;;;;;;;;;13097773;22;20379;-86
2024/02/12 18:12:45;;;;;;;14.68;8.77;;;;;;;;;;13091393;22;20379;-83
2024/02/12 18:17:48;;;;;;;18.05;13.07;;;;;;;;;;13092768;22;20441;-76
2024/02/12 18:22:52;;;;;;;19.08;12.93;;;;;;;;;;13095224;22;20371;-76
2024/02/12 18:27:54;;;;;;;16.65;9.57;;;;;;;;;;13094254;22;20367;-76
2024/02/12 18:32:56;;;;;;;12.65;9.40;;;;;;;;;;13092489;22;20363;-75
2024/02/12 18:38:02;;;;;;;11.52;8.35;;;;;;;;;;13088638;22;21026;-76
2024/02/12 18:43:04;;;;;;;15.30;9.05;;;;;;;;;;13092063;22;20406;-75
2024/02/12 18:48:07;;;;;;;14.90;10.20;;;;;;;;;;13089283;22;20452;-74
2024/02/12 18:53:11;;;;;;;16.63;11.95;;;;;;;;;;13088145;22;20969;-75
2024/02/12 18:58:14;;;;;;;18.38;11.07;;;;;;;;;;13089777;22;20831;-86
2024/02/12 19:03:16;;;;;;;52.33;25.47;;;;;;;;;;13091677;22;20835;-86
2024/02/12 19:08:21;;;;;;;20.10;12.85;;;;;;;;;;13091397;22;20410;-85
2024/02/12 19:13:23;;;;;;;20.55;13.85;;;;;;;;;;13091956;22;20375;-85
2024/02/12 19:18:26;;;;;;;36.22;18.80;;;;;;;;;;13089711;22;20378;-85
2024/02/12 19:23:29;;;;;;;26.40;15.15;;;;;;;;;;13089247;22;20371;-85
2024/02/12 19:28:33;;;;;;;23.83;15.07;;;;;;;;;;13091981;22;20412;-86
2024/02/12 19:33:35;;;;;;;19.77;13.23;;;;;;;;;;13091035;22;20375;-86
2024/02/12 19:38:39;;;;;;;24.77;15.55;;;;;;;;;;13092262;22;20375;-86
2024/02/12 19:43:41;;;;;;;22.98;15.50;;;;;;;;;;13101315;22;20362;-86
2024/02/12 19:48:44;;;;;;;19.40;13.60;;;;;;;;;;13098550;22;20379;-86
2024/02/12 19:53:48;;;;;;;19.88;13.90;;;;;;;;;;13091126;22;20366;-86
2024/02/12 19:58:50;;;;;;;21.30;13.03;;;;;;;;;;13089787;22;20763;-87
2024/02/12 20:03:53;;;;;;;27.55;15.80;;;;;;;;;;13088565;22;20924;-85
2024/02/12 20:08:57;;;;;;;17.45;12.00;;;;;;;;;;13090538;22;20378;-86
2024/02/12 20:14:00;;;;;;;22.02;13.20;;;;;;;;;;13090489;22;20456;-87
2024/02/12 20:19:04;;;;;;;22.57;12.80;;;;;;;;;;13090838;22;20371;-86
2024/02/12 20:24:08;;;;;;;19.10;13.13;;;;;;;;;;13091174;22;20363;-87
2024/02/12 20:29:11;;;;;;;20.98;13.30;;;;;;;;;;13088749;22;20851;-85
2024/02/12 20:34:13;;;;;;;22.52;13.63;;;;;;;;;;13089203;22;20375;-85
2024/02/12 20:39:17;;;;;;;21.60;14.30;;;;;;;;;;13090105;22;20741;-86
2024/02/12 20:44:20;;;;;;;24.97;16.63;;;;;;;;;;13087318;22;20383;-86
2024/02/12 20:49:22;;;;;;;27.77;17.42;;;;;;;;;;13089222;22;20436;-86
2024/02/12 20:54:31;;;;;;;21.00;14.27;;;;;;;;;;13091534;22;20487;-86
2024/02/12 20:59:33;;;;;;;19.33;13.33;;;;;;;;;;13096515;22;20428;-87
2024/02/12 21:04:35;;;;;;;20.20;13.03;;;;;;;;;;13112334;22;20375;-86
2024/02/12 21:09:44;;;;;;;21.52;14.05;;;;;;;;;;13099679;22;20371;-86
2024/02/12 21:14:48;;;;;;;20.58;13.40;;;;;;;;;;13098695;22;20443;-86
2024/02/12 21:19:51;;;;;;;25.30;14.45;;;;;;;;;;13098890;22;20371;-86
2024/02/12 21:24:55;;;;;;;22.00;14.57;;;;;;;;;;13099143;22;20432;-86
2024/02/12 21:29:58;;;;;;;24.00;15.77;;;;;;;;;;13099145;22;20908;-86
2024/02/12 21:35:01;;;;;;;28.87;16.90;;;;;;;;;;13099380;22;20444;-87
2024/02/12 21:40:08;;;;;;;28.30;16.60;;;;;;;;;;13099730;22;20704;-86
2024/02/12 21:45:10;;;;;;;29.60;16.02;;;;;;;;;;13097293;22;20375;-86
2024/02/12 21:50:13;;;;;;;27.95;16.52;;;;;;;;;;13099186;22;20383;-86
2024/02/12 21:55:17;;;;;;;26.25;16.33;;;;;;;;;;13095948;22;20383;-87
2024/02/12 22:00:21;;;;;;;26.40;16.17;;;;;;;;;;13097167;22;20379;-85
2024/02/12 22:05:23;;;;;;;24.92;16.75;;;;;;;;;;13105134;22;20413;-86
2024/02/12 22:10:27;;;;;;;25.30;16.35;;;;;;;;;;13104868;22;20367;-85
2024/02/12 22:15:29;;;;;;;26.73;16.88;;;;;;;;;;13107455;22;20839;-85
2024/02/12 22:20:32;;;;;;;29.13;18.15;;;;;;;;;;13109381;22;20408;-81
2024/02/12 22:25:37;;;;;;;24.00;16.75;;;;;;;;;;13106750;22;20367;-85
2024/02/12 22:30:41;;;;;;;25.07;16.37;;;;;;;;;;13106019;22;20368;-86
2024/02/12 22:35:45;;;;;;;24.73;16.60;;;;;;;;;;13106918;22;20847;-85
2024/02/12 22:40:49;;;;;;;27.83;17.67;;;;;;;;;;13105742;22;20416;-85
2024/02/12 22:45:52;;;;;;;28.25;19.42;;;;;;;;;;13107647;22;20424;-86
2024/02/12 22:50:54;;;;;;;31.80;19.50;;;;;;;;;;13104101;22;20428;-83
2024/02/12 22:55:58;;;;;;;29.90;19.70;;;;;;;;;;13104607;22;20383;-85
2024/02/12 23:01:00;;;;;;;28.38;18.90;;;;;;;;;;13106427;22;20900;-85
2024/02/12 23:06:02;;;;;;;32.00;19.40;;;;;;;;;;13105001;22;20668;-85
2024/02/12 23:11:06;;;;;;;26.48;16.95;;;;;;;;;;13104755;22;20363;-85
2024/02/12 23:16:09;;;;;;;27.43;17.77;;;;;;;;;;13104906;22;20437;-85
2024/02/12 23:21:12;;;;;;;27.23;17.73;;;;;;;;;;13105152;22;20416;-86
2024/02/12 23:26:15;;;;;;;24.40;16.00;;;;;;;;;;13105224;22;20355;-85
2024/02/12 23:31:18;;;;;;;25.70;16.25;;;;;;;;;;13104575;22;20359;-85
2024/02/12 23:36:20;;;;;;;24.88;15.25;;;;;;;;;;13106057;22;20444;-85
2024/02/12 23:41:24;;;;;;;28.30;18.38;;;;;;;;;;13104492;22;20363;-85
2024/02/12 23:46:27;;;;;;;27.95;17.48;;;;;;;;;;13100842;22;20389;-85
2024/02/12 23:51:31;;;;;;;28.00;17.75;;;;;;;;;;13101207;22;20447;-84
2024/02/12 23:56:35;;;;;;;28.97;18.60;;;;;;;;;;13100897;22;20379;-85
